This is the latest recevied weather packets stored in our database for station/object JF7BTK-10. If no packets are shown the sender has not sent any weather packets the latest 10 day(s).
| Time | Temp. | Humidity | Pressure | Rain* | Wind** | Luminosity | Snow |
|---|---|---|---|---|---|---|---|
| 1777985199 | 12.78° C | 54% | 1010.9 hPa | 0 mm | - | - | - |
| 1777984298 | 13.33° C | 53% | 1010.9 hPa | 0 mm | - | - | - |
| 1777983400 | 13.33° C | 54% | 1010.8 hPa | 0 mm | - | - | - |
| 1777982499 | 12.78° C | 59% | 1011.1 hPa | 0 mm | - | - | - |
| 1777981600 | 12.78° C | 61% | 1011.1 hPa | 0 mm | - | - | - |
| 1777980699 | 12.78° C | 60% | 1011.1 hPa | 0 mm | - | - | - |
| 1777979799 | 13.33° C | 61% | 1011.2 hPa | 0 mm | - | - | - |
| 1777978900 | 13.33° C | 58% | 1011.2 hPa | 0 mm | - | - | - |
| 1777978000 | 13.89° C | 54% | 1011.3 hPa | 0 mm | - | - | - |
| 1777977100 | 13.89° C | 56% | 1011 hPa | 0 mm | - | - | - |
| 1777976200 | 13.89° C | 60% | 1011 hPa | 0 mm | - | - | - |
| 1777975298 | 14.44° C | 60% | 1011 hPa | 0 mm | - | - | - |
| 1777974400 | 14.44° C | 60% | 1011 hPa | 0 mm | - | - | - |
| 1777973499 | 15.56° C | 56% | 1010.9 hPa | 0 mm | - | - | - |
| 1777972600 | 16.11° C | 55% | 1010.8 hPa | 0 mm | - | - | - |
| 1777971699 | 16.11° C | 53% | 1010.8 hPa | 0 mm | - | - | - |
| 1777970800 | 16.67° C | 53% | 1010.7 hPa | 0 mm | - | - | - |
| 1777969899 | 17.22° C | 52% | 1010.8 hPa | 0 mm | - | - | - |
| 1777968999 | 17.22° C | 60% | 1011 hPa | 0 mm | - | - | - |
| 1777967200 | 17.78° C | 55% | 1010.7 hPa | 0 mm | - | - | - |
| 1777965400 | 18.89° C | 52% | 1010.7 hPa | 0 mm | - | - | - |
| 1777964499 | 18.89° C | 50% | 1010.4 hPa | 0 mm | - | - | - |
| 1777963598 | 18.33° C | 51% | 1010.4 hPa | 0 mm | - | - | - |
| 1777962699 | 18.33° C | 52% | 1010 hPa | 0 mm | - | - | - |
| 1777961800 | 18.33° C | 50% | 1010.2 hPa | 0 mm | - | - | - |
* Rain latest hour (hover to see other rain measurements)
** Current wind speed in m/s (hover to see current wind gust speed)